createdAt,value
2022-12-08T00:01:54.762Z,100.00
2022-12-08T00:03:59.551Z,100.00
2022-12-08T00:06:22.325Z,100.00
2022-12-08T00:08:42.645Z,100.00
2022-12-08T00:10:50.104Z,100.00
2022-12-08T00:12:52.918Z,100.00
2022-12-08T00:14:55.631Z,100.00
2022-12-08T00:17:00.002Z,100.00
2022-12-08T00:19:02.770Z,100.00
2022-12-08T00:21:07.307Z,100.00
2022-12-08T00:23:10.011Z,100.00
2022-12-08T00:25:12.670Z,100.00
2022-12-08T00:27:18.096Z,100.00
2022-12-08T00:29:20.799Z,100.00
2022-12-08T00:31:23.546Z,100.00
2022-12-08T00:33:26.409Z,100.00
2022-12-08T00:35:29.049Z,100.00
2022-12-08T00:37:33.227Z,100.00
2022-12-08T00:39:36.088Z,100.00
2022-12-08T00:41:56.495Z,100.00
2022-12-08T00:43:59.366Z,100.00
2022-12-08T00:46:02.159Z,100.00
2022-12-08T00:48:05.361Z,100.00
2022-12-08T00:50:09.091Z,100.00
2022-12-08T00:52:12.611Z,100.00
2022-12-08T00:54:18.064Z,100.00
2022-12-08T00:56:20.786Z,100.00
2022-12-08T00:58:23.378Z,100.00
2022-12-08T01:00:26.187Z,100.00
2022-12-08T01:02:28.835Z,100.00
2022-12-08T01:04:31.478Z,100.00
2022-12-08T01:06:36.014Z,100.00
2022-12-08T01:08:39.630Z,100.00
2022-12-08T01:10:43.779Z,100.00
2022-12-08T01:12:46.461Z,100.00
2022-12-08T01:14:49.084Z,100.00
2022-12-08T01:16:52.072Z,100.00
2022-12-08T01:18:55.326Z,100.00
2022-12-08T01:21:03.417Z,100.00
2022-12-08T01:23:06.106Z,100.00
2022-12-08T01:25:09.691Z,100.00
2022-12-08T01:27:16.330Z,100.00
2022-12-08T01:29:19.264Z,100.00
2022-12-08T01:31:23.932Z,100.00
2022-12-08T01:33:27.709Z,100.00
2022-12-08T01:35:30.364Z,100.00
2022-12-08T01:37:33.034Z,100.00
2022-12-08T01:39:36.412Z,100.00
2022-12-08T01:41:39.620Z,100.00
2022-12-08T01:43:56.652Z,100.00
2022-12-08T01:45:59.374Z,100.00
2022-12-08T01:48:07.180Z,100.00
2022-12-08T01:50:12.620Z,100.00
2022-12-08T01:52:19.753Z,100.00
2022-12-08T01:54:26.865Z,100.00
2022-12-08T01:56:36.159Z,100.00
2022-12-08T01:58:42.617Z,100.00
2022-12-08T02:00:46.917Z,100.00
2022-12-08T02:02:55.292Z,100.00
2022-12-08T02:04:57.994Z,100.00
2022-12-08T02:07:06.374Z,100.00
2022-12-08T02:09:11.439Z,100.00
2022-12-08T02:11:14.835Z,100.00
2022-12-08T02:13:19.948Z,100.00
2022-12-08T02:15:27.262Z,100.00
2022-12-08T02:17:46.565Z,100.00
2022-12-08T02:20:10.655Z,100.00
2022-12-08T02:22:19.411Z,100.00
2022-12-08T02:24:32.861Z,100.00
2022-12-08T02:27:09.773Z,100.00
2022-12-08T02:29:28.703Z,100.00
2022-12-08T02:31:37.820Z,100.00
2022-12-08T02:34:10.910Z,100.00
2022-12-08T02:36:20.928Z,100.00
2022-12-08T02:38:35.689Z,100.00
2022-12-08T02:40:46.051Z,100.00
2022-12-08T02:42:56.339Z,100.00
2022-12-08T02:45:05.076Z,100.00
2022-12-08T02:47:12.236Z,100.00
2022-12-08T02:49:16.706Z,100.00
2022-12-08T02:51:19.490Z,100.00
2022-12-08T02:53:22.081Z,100.00
2022-12-08T02:55:29.366Z,100.00
2022-12-08T02:57:39.567Z,100.00
2022-12-08T02:59:57.505Z,100.00
2022-12-08T03:02:13.635Z,100.00
2022-12-08T03:04:27.705Z,100.00
2022-12-08T03:06:36.330Z,100.00
2022-12-08T03:08:47.701Z,100.00
2022-12-08T03:10:57.144Z,100.00
2022-12-08T03:13:06.598Z,100.00
2022-12-08T03:15:13.163Z,100.00
2022-12-08T03:17:19.360Z,100.00
2022-12-08T03:19:27.346Z,100.00
2022-12-08T03:21:34.111Z,100.00
2022-12-08T03:23:37.899Z,100.00
2022-12-08T03:25:48.362Z,100.00
2022-12-08T03:27:52.532Z,100.00
2022-12-08T03:29:57.340Z,100.00
2022-12-08T03:32:07.960Z,100.00
2022-12-08T03:34:13.004Z,100.00
2022-12-08T03:36:17.094Z,100.00
2022-12-08T03:38:19.878Z,100.00
2022-12-08T03:40:22.532Z,100.00
2022-12-08T03:42:25.194Z,100.00
2022-12-08T03:44:27.949Z,100.00
2022-12-08T03:48:33.148Z,100.00
2022-12-08T03:50:35.816Z,100.00
2022-12-08T03:52:39.915Z,100.00
2022-12-08T03:54:42.661Z,100.00
2022-12-08T03:56:45.340Z,100.00
2022-12-08T03:58:48.067Z,100.00
2022-12-08T04:00:50.780Z,100.00
2022-12-08T04:02:53.668Z,100.00
2022-12-08T04:04:56.390Z,100.00
2022-12-08T04:06:59.016Z,100.00
2022-12-08T04:09:02.992Z,100.00
2022-12-08T04:11:06.578Z,100.00
2022-12-08T04:13:09.269Z,100.00
2022-12-08T04:15:12.406Z,100.00
2022-12-08T04:17:15.082Z,100.00
2022-12-08T04:19:17.825Z,100.00
2022-12-08T04:21:21.160Z,100.00
2022-12-08T04:23:24.308Z,100.00
2022-12-08T04:25:28.791Z,100.00
2022-12-08T04:27:31.381Z,100.00
2022-12-08T04:29:34.074Z,100.00
2022-12-08T04:31:36.812Z,100.00
2022-12-08T04:33:39.719Z,100.00
2022-12-08T04:35:42.439Z,100.00
2022-12-08T04:37:45.202Z,100.00
2022-12-08T04:39:47.970Z,100.00
2022-12-08T04:41:52.004Z,100.00
2022-12-08T04:43:54.615Z,100.00
2022-12-08T04:45:57.413Z,100.00
2022-12-08T04:48:00.766Z,100.00
2022-12-08T04:50:03.796Z,100.00
2022-12-08T04:52:06.692Z,100.00
2022-12-08T04:54:09.407Z,100.00
2022-12-08T04:56:14.346Z,100.00
2022-12-08T04:58:20.378Z,100.00
2022-12-08T05:00:23.284Z,100.00
2022-12-08T05:02:25.992Z,100.00
2022-12-08T05:04:28.845Z,100.00
2022-12-08T05:06:34.817Z,100.00
2022-12-08T05:08:37.550Z,100.00
2022-12-08T05:10:40.639Z,100.00
2022-12-08T05:12:43.281Z,100.00
2022-12-08T05:14:47.755Z,100.00
2022-12-08T05:16:50.543Z,100.00
2022-12-08T05:18:53.367Z,100.00
2022-12-08T05:20:56.116Z,100.00
2022-12-08T05:22:58.831Z,100.00
2022-12-08T05:25:01.662Z,100.00
2022-12-08T05:27:04.607Z,100.00
2022-12-08T05:29:07.291Z,100.00
2022-12-08T05:31:11.720Z,100.00
2022-12-08T05:33:14.479Z,100.00
2022-12-08T05:35:17.102Z,100.00
2022-12-08T05:37:19.800Z,100.00
2022-12-08T05:39:22.513Z,100.00
2022-12-08T05:41:25.803Z,100.00
2022-12-08T05:43:28.999Z,100.00
2022-12-08T05:45:31.729Z,100.00
2022-12-08T05:47:36.170Z,100.00
2022-12-08T05:49:39.190Z,100.00
2022-12-08T05:51:41.930Z,100.00
2022-12-08T05:53:44.608Z,100.00
2022-12-08T05:55:48.546Z,100.00
2022-12-08T05:57:51.291Z,100.00
2022-12-08T05:59:53.982Z,100.00
2022-12-08T06:01:56.773Z,100.00
2022-12-08T06:04:02.166Z,100.00
2022-12-08T06:06:05.332Z,100.00
2022-12-08T06:08:08.146Z,100.00
2022-12-08T06:10:11.349Z,100.00
2022-12-08T06:12:14.021Z,100.00
2022-12-08T06:14:16.735Z,100.00
2022-12-08T06:16:20.222Z,100.00
2022-12-08T06:18:22.999Z,100.00
2022-12-08T06:20:27.081Z,100.00
2022-12-08T06:22:30.314Z,100.00
2022-12-08T06:24:33.089Z,100.00
2022-12-08T06:26:36.007Z,100.00
2022-12-08T06:28:39.236Z,100.00
2022-12-08T06:30:41.894Z,100.00
2022-12-08T06:32:45.581Z,100.00
2022-12-08T06:34:48.226Z,100.00
2022-12-08T06:36:52.217Z,100.00
2022-12-08T06:38:55.052Z,100.00
2022-12-08T06:40:58.995Z,100.00
2022-12-08T06:43:01.633Z,100.00
2022-12-08T06:45:04.993Z,100.00
2022-12-08T06:47:07.605Z,100.00
2022-12-08T06:49:10.329Z,100.00
2022-12-08T06:51:15.934Z,100.00
2022-12-08T06:53:20.035Z,100.00
2022-12-08T06:55:50.960Z,100.00
2022-12-08T06:57:45.617Z,100.00
2022-12-08T06:59:48.392Z,100.00
2022-12-08T07:01:51.116Z,100.00
2022-12-08T07:03:54.424Z,100.00
2022-12-08T07:06:03.533Z,100.00
2022-12-08T07:08:08.588Z,100.00
2022-12-08T07:10:13.132Z,100.00
2022-12-08T07:12:16.019Z,100.00
2022-12-08T07:14:20.244Z,100.00
2022-12-08T07:16:23.158Z,100.00
2022-12-08T07:18:25.790Z,100.00
2022-12-08T07:20:28.616Z,100.00
2022-12-08T07:22:31.372Z,100.00
2022-12-08T07:24:34.358Z,100.00
2022-12-08T07:26:39.915Z,100.00
2022-12-08T07:28:43.610Z,100.00
2022-12-08T07:30:46.574Z,100.00
2022-12-08T07:32:49.526Z,100.00
2022-12-08T07:34:52.195Z,100.00
2022-12-08T07:36:54.813Z,100.00
2022-12-08T07:38:57.745Z,100.00
2022-12-08T07:41:00.480Z,100.00
2022-12-08T07:43:04.583Z,100.00
2022-12-08T07:45:08.595Z,100.00
2022-12-08T07:47:11.386Z,100.00
2022-12-08T07:49:14.483Z,100.00
2022-12-08T07:51:18.893Z,100.00
2022-12-08T07:53:21.654Z,100.00
2022-12-08T07:55:24.369Z,100.00
2022-12-08T07:57:27.174Z,100.00
2022-12-08T07:59:31.254Z,100.00
2022-12-08T08:01:36.015Z,100.00
2022-12-08T08:03:38.801Z,100.00
2022-12-08T08:05:41.815Z,100.00
2022-12-08T08:07:46.540Z,100.00
2022-12-08T08:09:49.206Z,100.00
2022-12-08T08:12:14.444Z,100.00
2022-12-08T08:14:14.604Z,100.00
2022-12-08T08:16:19.845Z,100.00
2022-12-08T08:18:22.678Z,100.00
2022-12-08T08:20:25.544Z,100.00
2022-12-08T08:22:28.566Z,100.00
2022-12-08T08:24:31.473Z,100.00
2022-12-08T08:26:34.200Z,100.00
2022-12-08T08:28:37.017Z,100.00
2022-12-08T08:30:40.093Z,100.00
2022-12-08T08:32:44.281Z,100.00
2022-12-08T08:34:46.936Z,100.00
2022-12-08T08:36:49.605Z,100.00
2022-12-08T08:38:52.369Z,100.00
2022-12-08T08:40:55.019Z,100.00
2022-12-08T08:42:57.655Z,100.00
2022-12-08T08:45:00.289Z,100.00
2022-12-08T08:47:02.984Z,100.00
2022-12-08T08:49:07.289Z,98.64
2022-12-08T08:51:12.211Z,95.94
2022-12-08T08:53:14.892Z,96.30
2022-12-08T08:55:17.679Z,96.75
2022-12-08T08:57:25.248Z,98.74
2022-12-08T08:59:29.559Z,99.64
2022-12-08T09:01:32.409Z,99.03
2022-12-08T09:03:35.551Z,99.12
2022-12-08T09:05:41.306Z,98.83
2022-12-08T09:07:44.025Z,98.21
2022-12-08T09:09:46.784Z,99.94
2022-12-08T09:11:49.584Z,100.00
2022-12-08T09:13:53.386Z,100.00
2022-12-08T09:15:56.154Z,100.00
2022-12-08T09:17:58.844Z,97.64
2022-12-08T09:20:01.943Z,99.85
2022-12-08T09:22:06.834Z,97.36
2022-12-08T09:24:15.405Z,97.35
2022-12-08T09:26:18.115Z,95.19
2022-12-08T09:28:20.766Z,97.40
2022-12-08T09:30:23.529Z,95.79
2022-12-08T09:32:26.323Z,95.72
2022-12-08T09:34:29.285Z,94.21
2022-12-08T09:36:32.330Z,93.34
2022-12-08T09:38:36.729Z,91.35
2022-12-08T09:40:49.324Z,88.66
2022-12-08T09:42:55.561Z,92.39
2022-12-08T09:45:05.567Z,90.29
2022-12-08T09:47:17.215Z,93.49
2022-12-08T09:49:24.264Z,95.25
2022-12-08T09:51:28.533Z,96.95
2022-12-08T09:53:36.681Z,97.76
2022-12-08T09:55:45.204Z,99.93
2022-12-08T09:57:56.473Z,99.89
2022-12-08T10:00:05.366Z,100.00
2022-12-08T10:02:22.624Z,100.00
2022-12-08T10:04:27.788Z,100.00
2022-12-08T10:06:34.656Z,100.00
2022-12-08T10:08:47.041Z,100.00
2022-12-08T10:10:58.320Z,99.48
2022-12-08T10:13:06.868Z,98.08
2022-12-08T10:15:27.574Z,98.84
2022-12-08T10:17:35.182Z,99.57
2022-12-08T10:19:41.475Z,98.53
2022-12-08T10:21:44.165Z,98.09
2022-12-08T10:23:51.064Z,97.85
2022-12-08T10:26:01.597Z,96.34
2022-12-08T10:28:04.301Z,95.72
2022-12-08T10:30:13.283Z,94.86
2022-12-08T10:32:19.769Z,95.14
2022-12-08T10:34:24.647Z,95.04
2022-12-08T10:36:47.026Z,94.36
2022-12-08T10:38:49.792Z,96.21
2022-12-08T10:40:54.774Z,96.48
2022-12-08T10:43:00.261Z,93.87
2022-12-08T10:45:22.832Z,94.12
2022-12-08T10:47:28.336Z,94.24
2022-12-08T10:49:33.560Z,94.24
2022-12-08T10:51:40.038Z,92.47
2022-12-08T10:53:47.445Z,93.48
2022-12-08T10:55:52.301Z,92.78
2022-12-08T10:57:54.933Z,92.88
2022-12-08T10:59:59.052Z,91.60
2022-12-08T11:02:02.236Z,91.77
2022-12-08T11:04:08.055Z,92.44
2022-12-08T11:06:16.222Z,91.45
2022-12-08T11:08:18.956Z,89.53
2022-12-08T11:10:28.402Z,89.36
2022-12-08T11:12:32.176Z,89.80
2022-12-08T11:14:51.580Z,87.87
2022-12-08T11:16:57.979Z,88.29
2022-12-08T11:19:06.644Z,88.86
2022-12-08T11:21:14.350Z,88.76
2022-12-08T11:23:22.513Z,87.69
2022-12-08T11:25:27.313Z,86.44
2022-12-08T11:27:30.363Z,85.88
2022-12-08T11:29:34.841Z,85.61
2022-12-08T11:31:44.198Z,86.81
2022-12-08T11:33:49.680Z,85.99
2022-12-08T11:35:57.421Z,85.94
2022-12-08T11:38:20.638Z,85.01
2022-12-08T11:40:27.232Z,84.67
2022-12-08T11:42:36.494Z,85.95
2022-12-08T11:44:43.420Z,86.59
2022-12-08T11:46:49.878Z,86.14
2022-12-08T11:49:04.333Z,84.59
2022-12-08T11:51:13.838Z,85.08
2022-12-08T11:53:28.920Z,85.38
2022-12-08T11:55:39.003Z,84.68
2022-12-08T11:57:42.800Z,85.68
2022-12-08T11:59:49.650Z,85.07
2022-12-08T12:01:52.531Z,86.22
2022-12-08T12:04:13.777Z,85.73
2022-12-08T12:09:07.113Z,84.23
2022-12-08T12:11:39.494Z,82.65
2022-12-08T12:13:57.621Z,81.87
2022-12-08T12:16:36.569Z,81.82
2022-12-08T12:18:45.358Z,82.88
2022-12-08T12:20:55.888Z,83.64
2022-12-08T12:23:04.801Z,83.70
2022-12-08T12:25:17.280Z,82.74
2022-12-08T12:27:26.238Z,82.59
2022-12-08T12:29:33.203Z,80.63
2022-12-08T12:31:41.413Z,79.61
2022-12-08T12:33:46.559Z,79.41
2022-12-08T12:35:50.961Z,80.02
2022-12-08T12:37:58.898Z,79.95
2022-12-08T12:40:06.805Z,79.49
2022-12-08T12:42:09.618Z,79.08
2022-12-08T12:44:40.591Z,80.15
2022-12-08T12:46:58.596Z,79.97
2022-12-08T12:49:36.951Z,76.53
2022-12-08T12:51:47.540Z,75.96
2022-12-08T12:53:52.055Z,76.67
2022-12-08T12:55:56.350Z,74.61
2022-12-08T12:58:00.212Z,74.41
2022-12-08T13:00:11.477Z,75.50
2022-12-08T13:02:21.255Z,74.18
2022-12-08T13:04:36.868Z,72.67
2022-12-08T13:06:43.094Z,70.77
2022-12-08T13:08:52.184Z,70.21
2022-12-08T13:11:01.780Z,72.63
2022-12-08T13:13:08.890Z,71.53
2022-12-08T13:15:19.618Z,70.38
2022-12-08T13:17:28.315Z,67.86
2022-12-08T13:19:33.595Z,68.91
2022-12-08T13:21:39.280Z,71.50
2022-12-08T13:23:47.606Z,71.51
2022-12-08T13:25:54.095Z,73.78
2022-12-08T13:27:56.776Z,74.53
2022-12-08T13:30:42.856Z,73.21
2022-12-08T13:35:20.917Z,72.86
2022-12-08T13:37:26.948Z,74.38
2022-12-08T13:39:37.946Z,76.10
2022-12-08T13:41:49.033Z,75.46
2022-12-08T13:44:39.137Z,74.14
2022-12-08T13:50:23.361Z,76.63
2022-12-08T13:53:22.375Z,75.52
2022-12-08T13:58:39.529Z,75.25
2022-12-08T14:00:42.325Z,74.67
2022-12-08T14:02:48.603Z,74.64
2022-12-08T14:05:17.402Z,74.22
2022-12-08T14:07:15.582Z,74.63
2022-12-08T14:09:22.173Z,74.97
2022-12-08T14:11:35.053Z,75.10
2022-12-08T14:13:39.065Z,76.00
2022-12-08T14:15:41.817Z,75.41
2022-12-08T14:17:52.477Z,76.46
2022-12-08T14:19:57.262Z,76.60
2022-12-08T14:22:02.165Z,76.17
2022-12-08T14:24:05.267Z,77.15
2022-12-08T14:26:08.128Z,77.05
2022-12-08T14:28:11.472Z,77.35
2022-12-08T14:30:21.537Z,77.59
2022-12-08T14:32:28.260Z,79.59
2022-12-08T14:34:32.904Z,81.35
2022-12-08T14:36:36.262Z,81.38
2022-12-08T14:38:39.101Z,81.90
2022-12-08T14:40:43.575Z,82.24
2022-12-08T14:42:47.845Z,81.97
2022-12-08T14:44:57.718Z,82.51
2022-12-08T14:47:11.605Z,82.68
2022-12-08T14:49:35.735Z,82.96
2022-12-08T14:51:40.845Z,82.54
2022-12-08T14:53:46.730Z,82.51
2022-12-08T14:55:50.355Z,81.96
2022-12-08T14:57:53.102Z,82.72
2022-12-08T14:59:55.857Z,82.66
2022-12-08T15:02:14.573Z,83.08
2022-12-08T15:04:21.153Z,83.37
2022-12-08T15:06:24.157Z,84.26
2022-12-08T15:08:26.941Z,84.35
2022-12-08T15:10:31.887Z,85.36
2022-12-08T15:12:34.580Z,84.99
2022-12-08T15:14:41.308Z,85.63
2022-12-08T15:16:44.890Z,85.55
2022-12-08T15:19:01.790Z,85.30
2022-12-08T15:21:06.164Z,85.50
2022-12-08T15:23:21.108Z,86.04
2022-12-08T15:25:25.447Z,86.44
2022-12-08T15:27:28.210Z,86.55
2022-12-08T15:29:31.888Z,86.61
2022-12-08T15:31:34.592Z,86.75
2022-12-08T15:33:37.317Z,86.97
2022-12-08T15:35:41.657Z,87.52
2022-12-08T15:37:44.622Z,87.13
2022-12-08T15:39:47.291Z,87.62
2022-12-08T15:41:49.961Z,87.42
2022-12-08T15:43:52.590Z,87.68
2022-12-08T15:46:00.364Z,88.15
2022-12-08T15:48:03.188Z,87.57
2022-12-08T15:50:07.466Z,87.92
2022-12-08T15:52:15.979Z,88.02
2022-12-08T15:54:18.983Z,87.43
2022-12-08T15:56:29.077Z,88.22
2022-12-08T15:58:53.011Z,88.10
2022-12-08T16:00:55.938Z,88.21
2022-12-08T16:03:34.149Z,88.58
2022-12-08T16:07:46.587Z,89.20
2022-12-08T16:09:49.730Z,89.19
2022-12-08T16:12:10.598Z,88.98
2022-12-08T16:15:23.076Z,89.17
2022-12-08T16:16:36.304Z,88.91
2022-12-08T16:18:40.058Z,89.34
2022-12-08T16:21:07.492Z,89.98
2022-12-08T16:23:26.347Z,89.23
2022-12-08T16:25:46.290Z,89.66
2022-12-08T16:28:17.507Z,89.80
2022-12-08T16:30:18.288Z,89.93
2022-12-08T16:32:21.036Z,90.33
2022-12-08T16:34:23.783Z,90.23
2022-12-08T16:36:26.461Z,90.29
2022-12-08T16:38:30.503Z,90.11
2022-12-08T16:40:33.381Z,90.33
2022-12-08T16:42:43.444Z,90.00
2022-12-08T16:44:46.152Z,90.18
2022-12-08T16:46:48.778Z,89.65
2022-12-08T16:48:51.495Z,90.19
2022-12-08T16:50:54.910Z,90.43
2022-12-08T16:52:59.652Z,90.28
2022-12-08T16:55:04.222Z,90.61
2022-12-08T16:57:07.168Z,90.80
2022-12-08T16:59:09.817Z,91.08
2022-12-08T17:01:13.177Z,90.69
2022-12-08T17:03:17.230Z,90.64
2022-12-08T17:05:21.549Z,90.83
2022-12-08T17:07:24.329Z,91.03
2022-12-08T17:09:28.416Z,91.35
2022-12-08T17:11:37.471Z,90.85
2022-12-08T17:13:43.049Z,90.82
2022-12-08T17:15:45.791Z,91.47
2022-12-08T17:17:48.605Z,91.14
2022-12-08T17:19:51.389Z,90.91
2022-12-08T17:21:54.069Z,91.18
2022-12-08T17:23:56.768Z,91.05
2022-12-08T17:26:00.464Z,91.13
2022-12-08T17:28:04.597Z,90.68
2022-12-08T17:30:09.692Z,90.94
2022-12-08T17:32:12.491Z,90.50
2022-12-08T17:34:15.494Z,90.20
2022-12-08T17:36:18.398Z,90.81
2022-12-08T17:38:22.888Z,90.18
2022-12-08T17:40:28.357Z,89.90
2022-12-08T17:42:31.283Z,90.67
2022-12-08T17:44:35.650Z,89.86
2022-12-08T17:46:42.085Z,89.71
2022-12-08T17:48:46.472Z,89.78
2022-12-08T17:50:49.133Z,89.90
2022-12-08T17:52:52.287Z,90.03
2022-12-08T17:54:55.059Z,89.63
2022-12-08T17:56:58.950Z,90.30
2022-12-08T17:59:04.426Z,90.63
2022-12-08T18:01:10.459Z,90.73
2022-12-08T18:03:13.180Z,90.84
2022-12-08T18:05:15.820Z,90.34
2022-12-08T18:07:18.482Z,90.70
2022-12-08T18:09:21.460Z,90.66
2022-12-08T18:11:25.059Z,89.97
2022-12-08T18:13:27.740Z,90.44
2022-12-08T18:15:34.718Z,90.58
2022-12-08T18:17:41.643Z,89.32
2022-12-08T18:19:44.300Z,88.93
2022-12-08T18:21:47.029Z,89.53
2022-12-08T18:23:49.835Z,89.49
2022-12-08T18:25:52.563Z,90.04
2022-12-08T18:27:55.334Z,90.57
2022-12-08T18:29:58.078Z,90.75
2022-12-08T18:32:00.956Z,91.15
2022-12-08T18:34:05.045Z,91.25
2022-12-08T18:36:10.324Z,91.25
2022-12-08T18:38:13.019Z,91.07
2022-12-08T18:40:16.448Z,90.80
2022-12-08T18:42:27.760Z,91.01
2022-12-08T18:44:30.404Z,90.90
2022-12-08T18:46:33.208Z,90.59
2022-12-08T18:48:36.972Z,91.01
2022-12-08T18:50:44.748Z,90.87
2022-12-08T18:52:47.734Z,91.07
2022-12-08T18:55:05.695Z,91.07
2022-12-08T18:57:09.627Z,90.72
2022-12-08T18:59:13.527Z,90.72
2022-12-08T19:01:16.765Z,89.45
2022-12-08T19:03:19.474Z,87.88
2022-12-08T19:05:22.171Z,87.26
2022-12-08T19:07:26.253Z,87.40
2022-12-08T19:09:29.028Z,86.88
2022-12-08T19:11:31.748Z,87.46
2022-12-08T19:13:34.427Z,86.29
2022-12-08T19:15:37.196Z,86.94
2022-12-08T19:17:39.875Z,86.30
2022-12-08T19:19:42.698Z,86.06
2022-12-08T19:21:46.633Z,86.82
2022-12-08T19:23:51.711Z,86.37
2022-12-08T19:25:54.332Z,86.43
2022-12-08T19:27:57.041Z,86.06
2022-12-08T19:29:59.654Z,85.41
2022-12-08T19:32:03.198Z,84.83
2022-12-08T19:34:06.590Z,84.98
2022-12-08T19:36:11.376Z,84.97
2022-12-08T19:38:14.231Z,84.96
2022-12-08T19:40:35.717Z,85.52
2022-12-08T19:42:55.963Z,85.89
2022-12-08T19:45:02.040Z,87.13
2022-12-08T19:47:05.293Z,87.50
2022-12-08T19:49:08.008Z,87.97
2022-12-08T19:51:11.058Z,88.00
2022-12-08T19:53:15.722Z,87.88
2022-12-08T19:55:20.077Z,89.24
2022-12-08T19:57:22.683Z,88.13
2022-12-08T19:59:26.379Z,87.83
2022-12-08T20:01:29.075Z,89.97
2022-12-08T20:03:31.915Z,90.77
2022-12-08T20:05:36.877Z,91.75
2022-12-08T20:07:39.825Z,91.92
2022-12-08T20:09:42.507Z,91.17
2022-12-08T20:11:46.526Z,92.47
2022-12-08T20:13:49.164Z,91.66
2022-12-08T20:15:51.973Z,92.20
2022-12-08T20:17:54.641Z,92.96
2022-12-08T20:19:57.305Z,93.58
2022-12-08T20:21:59.978Z,94.44
2022-12-08T20:24:04.409Z,93.54
2022-12-08T20:26:08.635Z,94.03
2022-12-08T20:28:12.933Z,93.73
2022-12-08T20:30:17.421Z,94.98
2022-12-08T20:32:20.265Z,94.74
2022-12-08T20:34:22.909Z,94.53
2022-12-08T20:36:25.735Z,94.42
2022-12-08T20:38:28.469Z,94.98
2022-12-08T20:40:31.217Z,96.28
2022-12-08T20:42:33.905Z,96.50
2022-12-08T20:44:43.156Z,95.93
2022-12-08T20:46:49.413Z,96.68
2022-12-08T20:48:52.510Z,97.42
2022-12-08T20:50:55.353Z,97.70
2022-12-08T20:52:58.004Z,97.51
2022-12-08T20:55:00.861Z,98.26
2022-12-08T20:57:03.615Z,99.48
2022-12-08T20:59:06.706Z,99.70
2022-12-08T21:01:12.552Z,100.00
2022-12-08T21:03:17.481Z,99.97
2022-12-08T21:05:20.485Z,99.88
2022-12-08T21:07:23.259Z,99.96
2022-12-08T21:09:26.016Z,99.98
2022-12-08T21:11:28.936Z,100.00
2022-12-08T21:13:31.751Z,100.00
2022-12-08T21:15:34.437Z,99.64
2022-12-08T21:17:38.591Z,99.56
2022-12-08T21:19:41.486Z,99.41
2022-12-08T21:21:45.821Z,100.00
2022-12-08T21:23:48.710Z,100.00
2022-12-08T21:25:51.473Z,100.00
2022-12-08T21:27:54.360Z,100.00
2022-12-08T21:29:57.141Z,100.00
2022-12-08T21:32:00.182Z,99.10
2022-12-08T21:34:04.822Z,100.00
2022-12-08T21:36:09.508Z,100.00
2022-12-08T21:38:12.409Z,100.00
2022-12-08T21:40:15.405Z,100.00
2022-12-08T21:42:35.621Z,100.00
2022-12-08T21:44:38.400Z,100.00
2022-12-08T21:46:41.155Z,100.00
2022-12-08T21:48:43.955Z,100.00
2022-12-08T21:50:48.117Z,100.00
2022-12-08T21:52:51.028Z,100.00
2022-12-08T21:54:53.674Z,100.00
2022-12-08T21:56:56.530Z,100.00
2022-12-08T21:58:59.282Z,100.00
2022-12-08T22:01:06.678Z,100.00
2022-12-08T22:03:14.128Z,100.00
2022-12-08T22:05:17.375Z,100.00
2022-12-08T22:07:22.149Z,100.00
2022-12-08T22:09:25.119Z,100.00
2022-12-08T22:11:28.312Z,100.00
2022-12-08T22:13:30.978Z,100.00
2022-12-08T22:15:33.820Z,100.00
2022-12-08T22:17:38.140Z,100.00
2022-12-08T22:19:41.077Z,100.00
2022-12-08T22:21:43.975Z,99.77
2022-12-08T22:23:48.249Z,99.10
2022-12-08T22:25:57.578Z,97.60
2022-12-08T22:28:00.404Z,99.06
2022-12-08T22:30:03.775Z,98.11
2022-12-08T22:32:06.902Z,98.36
2022-12-08T22:34:09.917Z,99.21
2022-12-08T22:36:15.985Z,100.00
2022-12-08T22:38:18.667Z,100.00
2022-12-08T22:40:22.715Z,100.00
2022-12-08T22:42:25.417Z,100.00
2022-12-08T22:44:28.715Z,100.00
2022-12-08T22:46:31.693Z,100.00
2022-12-08T22:48:34.481Z,100.00
2022-12-08T22:50:37.380Z,100.00
2022-12-08T22:52:40.178Z,100.00
2022-12-08T22:54:42.826Z,100.00
2022-12-08T22:56:46.919Z,100.00
2022-12-08T22:58:49.873Z,100.00
2022-12-08T23:00:52.571Z,100.00
2022-12-08T23:02:55.286Z,100.00
2022-12-08T23:04:58.405Z,100.00
2022-12-08T23:07:01.395Z,100.00
2022-12-08T23:09:04.314Z,100.00
2022-12-08T23:11:07.242Z,100.00
2022-12-08T23:13:12.441Z,100.00
2022-12-08T23:15:15.156Z,100.00
2022-12-08T23:17:19.117Z,100.00
2022-12-08T23:19:21.934Z,100.00
2022-12-08T23:21:24.877Z,100.00
2022-12-08T23:23:27.557Z,99.88
2022-12-08T23:25:30.360Z,99.55
2022-12-08T23:27:33.733Z,99.46
2022-12-08T23:29:38.052Z,99.78
2022-12-08T23:31:40.803Z,97.91
2022-12-08T23:33:44.343Z,98.85
2022-12-08T23:35:47.107Z,99.61
2022-12-08T23:37:49.837Z,98.25
2022-12-08T23:39:52.546Z,98.24
2022-12-08T23:41:55.280Z,97.34
2022-12-08T23:43:58.179Z,98.12
2022-12-08T23:46:02.820Z,99.35
2022-12-08T23:48:05.738Z,99.21
2022-12-08T23:50:10.085Z,98.31
2022-12-08T23:52:13.876Z,99.43
2022-12-08T23:54:17.075Z,99.75
2022-12-08T23:56:22.235Z,99.86
2022-12-08T23:58:27.086Z,100.00
